sensor_id;sensor_type;location;lat;lon;timestamp;P1;durP1;ratioP1;P2;durP2;ratioP2
7166;SDS011;3625;51.762;14.320;2022-10-16T00:01:43;9.40;;;8.50;;
7166;SDS011;3625;51.762;14.320;2022-10-16T00:04:12;10.75;;;8.50;;
7166;SDS011;3625;51.762;14.320;2022-10-16T00:06:41;9.00;;;7.70;;
7166;SDS011;3625;51.762;14.320;2022-10-16T00:09:11;8.85;;;7.95;;
7166;SDS011;3625;51.762;14.320;2022-10-16T00:11:39;8.15;;;7.03;;
7166;SDS011;3625;51.762;14.320;2022-10-16T00:14:09;8.65;;;7.68;;
7166;SDS011;3625;51.762;14.320;2022-10-16T00:16:40;8.00;;;7.20;;
7166;SDS011;3625;51.762;14.320;2022-10-16T00:19:10;8.43;;;7.47;;
7166;SDS011;3625;51.762;14.320;2022-10-16T00:21:39;9.07;;;7.63;;
7166;SDS011;3625;51.762;14.320;2022-10-16T00:24:08;8.05;;;6.72;;
7166;SDS011;3625;51.762;14.320;2022-10-16T00:26:38;8.45;;;7.20;;
7166;SDS011;3625;51.762;14.320;2022-10-16T00:29:08;8.30;;;7.50;;
7166;SDS011;3625;51.762;14.320;2022-10-16T00:31:37;10.40;;;7.97;;
7166;SDS011;3625;51.762;14.320;2022-10-16T00:34:05;7.30;;;6.60;;
7166;SDS011;3625;51.762;14.320;2022-10-16T00:36:34;10.65;;;7.30;;
7166;SDS011;3625;51.762;14.320;2022-10-16T00:39:02;9.00;;;7.65;;
7166;SDS011;3625;51.762;14.320;2022-10-16T00:41:33;8.85;;;7.63;;
7166;SDS011;3625;51.762;14.320;2022-10-16T00:44:02;8.48;;;7.50;;
7166;SDS011;3625;51.762;14.320;2022-10-16T00:47:11;8.75;;;7.55;;
7166;SDS011;3625;51.762;14.320;2022-10-16T00:49:46;10.90;;;8.18;;
7166;SDS011;3625;51.762;14.320;2022-10-16T00:52:16;10.75;;;7.97;;
7166;SDS011;3625;51.762;14.320;2022-10-16T00:54:46;8.90;;;7.85;;
7166;SDS011;3625;51.762;14.320;2022-10-16T00:57:19;8.90;;;7.28;;
7166;SDS011;3625;51.762;14.320;2022-10-16T00:59:48;9.65;;;8.30;;
7166;SDS011;3625;51.762;14.320;2022-10-16T01:02:17;7.82;;;7.05;;
7166;SDS011;3625;51.762;14.320;2022-10-16T01:04:46;8.38;;;7.13;;
7166;SDS011;3625;51.762;14.320;2022-10-16T01:07:20;9.60;;;7.75;;
7166;SDS011;3625;51.762;14.320;2022-10-16T01:10:14;7.68;;;6.88;;
7166;SDS011;3625;51.762;14.320;2022-10-16T01:12:57;8.55;;;7.75;;
7166;SDS011;3625;51.762;14.320;2022-10-16T01:15:33;9.00;;;8.05;;
7166;SDS011;3625;51.762;14.320;2022-10-16T01:18:08;8.27;;;7.40;;
7166;SDS011;3625;51.762;14.320;2022-10-16T01:20:47;9.88;;;8.50;;
7166;SDS011;3625;51.762;14.320;2022-10-16T01:23:27;8.40;;;7.50;;
7166;SDS011;3625;51.762;14.320;2022-10-16T01:26:13;8.98;;;7.68;;
7166;SDS011;3625;51.762;14.320;2022-10-16T01:28:52;9.07;;;7.72;;
7166;SDS011;3625;51.762;14.320;2022-10-16T01:31:29;10.25;;;8.35;;
7166;SDS011;3625;51.762;14.320;2022-10-16T01:34:02;9.52;;;7.75;;
7166;SDS011;3625;51.762;14.320;2022-10-16T01:36:37;10.75;;;8.88;;
7166;SDS011;3625;51.762;14.320;2022-10-16T01:39:11;9.50;;;8.45;;
7166;SDS011;3625;51.762;14.320;2022-10-16T01:41:43;10.35;;;8.60;;
7166;SDS011;3625;51.762;14.320;2022-10-16T01:44:18;11.23;;;9.02;;
7166;SDS011;3625;51.762;14.320;2022-10-16T01:46:52;10.82;;;8.40;;
7166;SDS011;3625;51.762;14.320;2022-10-16T01:49:23;11.65;;;8.95;;
7166;SDS011;3625;51.762;14.320;2022-10-16T01:51:57;10.60;;;9.07;;
7166;SDS011;3625;51.762;14.320;2022-10-16T01:54:33;9.60;;;8.57;;
7166;SDS011;3625;51.762;14.320;2022-10-16T01:57:06;11.77;;;8.50;;
7166;SDS011;3625;51.762;14.320;2022-10-16T01:59:38;9.52;;;8.52;;
7166;SDS011;3625;51.762;14.320;2022-10-16T02:02:10;9.77;;;8.27;;
7166;SDS011;3625;51.762;14.320;2022-10-16T02:04:42;9.82;;;8.10;;
7166;SDS011;3625;51.762;14.320;2022-10-16T02:07:13;12.55;;;9.43;;
7166;SDS011;3625;51.762;14.320;2022-10-16T02:09:42;9.50;;;8.50;;
7166;SDS011;3625;51.762;14.320;2022-10-16T02:12:13;9.45;;;8.25;;
7166;SDS011;3625;51.762;14.320;2022-10-16T02:14:51;10.15;;;8.32;;
7166;SDS011;3625;51.762;14.320;2022-10-16T02:17:20;10.60;;;9.50;;
7166;SDS011;3625;51.762;14.320;2022-10-16T02:19:49;11.25;;;9.57;;
7166;SDS011;3625;51.762;14.320;2022-10-16T02:22:22;11.90;;;9.68;;
7166;SDS011;3625;51.762;14.320;2022-10-16T02:24:56;10.80;;;9.02;;
7166;SDS011;3625;51.762;14.320;2022-10-16T02:27:31;11.95;;;8.50;;
7166;SDS011;3625;51.762;14.320;2022-10-16T02:30:08;11.48;;;9.60;;
7166;SDS011;3625;51.762;14.320;2022-10-16T02:32:47;12.10;;;9.30;;
7166;SDS011;3625;51.762;14.320;2022-10-16T02:35:18;12.20;;;9.75;;
7166;SDS011;3625;51.762;14.320;2022-10-16T02:37:50;10.98;;;9.48;;
7166;SDS011;3625;51.762;14.320;2022-10-16T02:40:19;10.68;;;9.57;;
7166;SDS011;3625;51.762;14.320;2022-10-16T02:42:51;10.65;;;9.13;;
7166;SDS011;3625;51.762;14.320;2022-10-16T02:45:22;9.57;;;8.60;;
7166;SDS011;3625;51.762;14.320;2022-10-16T02:47:52;11.70;;;9.30;;
7166;SDS011;3625;51.762;14.320;2022-10-16T02:50:20;9.57;;;8.57;;
7166;SDS011;3625;51.762;14.320;2022-10-16T02:52:50;11.23;;;10.05;;
7166;SDS011;3625;51.762;14.320;2022-10-16T02:55:19;9.55;;;8.15;;
7166;SDS011;3625;51.762;14.320;2022-10-16T02:57:48;10.25;;;9.25;;
7166;SDS011;3625;51.762;14.320;2022-10-16T03:00:16;8.65;;;7.80;;
7166;SDS011;3625;51.762;14.320;2022-10-16T03:02:47;10.15;;;8.70;;
7166;SDS011;3625;51.762;14.320;2022-10-16T03:05:16;9.40;;;8.40;;
7166;SDS011;3625;51.762;14.320;2022-10-16T03:07:44;8.48;;;7.68;;
7166;SDS011;3625;51.762;14.320;2022-10-16T03:10:13;9.40;;;7.30;;
7166;SDS011;3625;51.762;14.320;2022-10-16T03:12:41;8.20;;;7.40;;
7166;SDS011;3625;51.762;14.320;2022-10-16T03:15:09;11.63;;;7.80;;
7166;SDS011;3625;51.762;14.320;2022-10-16T03:17:38;8.90;;;8.00;;
7166;SDS011;3625;51.762;14.320;2022-10-16T03:20:08;10.05;;;8.25;;
7166;SDS011;3625;51.762;14.320;2022-10-16T03:22:37;8.63;;;7.78;;
7166;SDS011;3625;51.762;14.320;2022-10-16T03:25:06;9.27;;;7.55;;
7166;SDS011;3625;51.762;14.320;2022-10-16T03:27:35;7.93;;;7.13;;
7166;SDS011;3625;51.762;14.320;2022-10-16T03:30:04;9.77;;;8.77;;
7166;SDS011;3625;51.762;14.320;2022-10-16T03:32:34;8.52;;;7.75;;
7166;SDS011;3625;51.762;14.320;2022-10-16T03:35:02;9.02;;;8.15;;
7166;SDS011;3625;51.762;14.320;2022-10-16T03:37:33;8.65;;;7.68;;
7166;SDS011;3625;51.762;14.320;2022-10-16T03:40:01;8.52;;;7.68;;
7166;SDS011;3625;51.762;14.320;2022-10-16T03:42:31;9.43;;;8.52;;
7166;SDS011;3625;51.762;14.320;2022-10-16T03:44:59;8.40;;;7.60;;
7166;SDS011;3625;51.762;14.320;2022-10-16T03:47:28;9.13;;;8.30;;
7166;SDS011;3625;51.762;14.320;2022-10-16T03:49:59;9.38;;;8.48;;
7166;SDS011;3625;51.762;14.320;2022-10-16T03:52:27;9.80;;;8.38;;
7166;SDS011;3625;51.762;14.320;2022-10-16T03:54:57;9.30;;;8.30;;
7166;SDS011;3625;51.762;14.320;2022-10-16T03:57:26;8.93;;;8.13;;
7166;SDS011;3625;51.762;14.320;2022-10-16T03:59:55;9.15;;;8.25;;
7166;SDS011;3625;51.762;14.320;2022-10-16T04:02:24;9.50;;;8.60;;
7166;SDS011;3625;51.762;14.320;2022-10-16T04:04:53;9.60;;;8.70;;
7166;SDS011;3625;51.762;14.320;2022-10-16T04:07:21;9.57;;;8.68;;
7166;SDS011;3625;51.762;14.320;2022-10-16T04:09:50;9.43;;;8.52;;
7166;SDS011;3625;51.762;14.320;2022-10-16T04:12:20;9.55;;;8.32;;
7166;SDS011;3625;51.762;14.320;2022-10-16T04:14:50;9.50;;;8.60;;
7166;SDS011;3625;51.762;14.320;2022-10-16T04:17:18;9.57;;;8.55;;
7166;SDS011;3625;51.762;14.320;2022-10-16T04:19:47;9.32;;;8.02;;
7166;SDS011;3625;51.762;14.320;2022-10-16T04:22:16;8.90;;;8.00;;
7166;SDS011;3625;51.762;14.320;2022-10-16T04:24:45;8.45;;;7.65;;
7166;SDS011;3625;51.762;14.320;2022-10-16T04:27:13;9.05;;;8.23;;
7166;SDS011;3625;51.762;14.320;2022-10-16T04:29:43;9.65;;;8.40;;
7166;SDS011;3625;51.762;14.320;2022-10-16T04:32:12;9.73;;;8.75;;
7166;SDS011;3625;51.762;14.320;2022-10-16T04:34:41;9.20;;;8.30;;
7166;SDS011;3625;51.762;14.320;2022-10-16T04:37:09;9.77;;;8.45;;
7166;SDS011;3625;51.762;14.320;2022-10-16T04:39:38;9.00;;;8.10;;
7166;SDS011;3625;51.762;14.320;2022-10-16T04:42:07;10.30;;;7.97;;
7166;SDS011;3625;51.762;14.320;2022-10-16T04:44:35;10.13;;;8.48;;
7166;SDS011;3625;51.762;14.320;2022-10-16T04:47:06;9.52;;;8.52;;
7166;SDS011;3625;51.762;14.320;2022-10-16T04:49:34;8.82;;;8.00;;
7166;SDS011;3625;51.762;14.320;2022-10-16T04:52:03;10.27;;;8.48;;
7166;SDS011;3625;51.762;14.320;2022-10-16T04:54:32;8.80;;;7.97;;
7166;SDS011;3625;51.762;14.320;2022-10-16T04:57:00;8.93;;;7.70;;
7166;SDS011;3625;51.762;14.320;2022-10-16T04:59:31;8.35;;;7.53;;
7166;SDS011;3625;51.762;14.320;2022-10-16T05:01:59;9.50;;;8.60;;
7166;SDS011;3625;51.762;14.320;2022-10-16T05:04:30;10.00;;;8.80;;
7166;SDS011;3625;51.762;14.320;2022-10-16T05:06:59;8.77;;;7.45;;
7166;SDS011;3625;51.762;14.320;2022-10-16T05:09:28;9.27;;;8.35;;
7166;SDS011;3625;51.762;14.320;2022-10-16T05:11:57;9.45;;;8.52;;
7166;SDS011;3625;51.762;14.320;2022-10-16T05:14:25;8.85;;;7.95;;
7166;SDS011;3625;51.762;14.320;2022-10-16T05:16:54;8.65;;;7.85;;
7166;SDS011;3625;51.762;14.320;2022-10-16T05:19:22;9.65;;;8.75;;
7166;SDS011;3625;51.762;14.320;2022-10-16T05:21:54;8.65;;;7.85;;
7166;SDS011;3625;51.762;14.320;2022-10-16T05:24:23;9.20;;;8.30;;
7166;SDS011;3625;51.762;14.320;2022-10-16T05:26:52;9.13;;;8.32;;
7166;SDS011;3625;51.762;14.320;2022-10-16T05:29:21;10.27;;;9.02;;
7166;SDS011;3625;51.762;14.320;2022-10-16T05:31:50;9.55;;;8.68;;
7166;SDS011;3625;51.762;14.320;2022-10-16T05:34:20;9.98;;;8.95;;
7166;SDS011;3625;51.762;14.320;2022-10-16T05:36:48;9.38;;;8.48;;
7166;SDS011;3625;51.762;14.320;2022-10-16T05:39:18;8.80;;;7.90;;
7166;SDS011;3625;51.762;14.320;2022-10-16T05:41:49;9.13;;;7.95;;
7166;SDS011;3625;51.762;14.320;2022-10-16T05:44:18;9.60;;;8.60;;
7166;SDS011;3625;51.762;14.320;2022-10-16T05:46:47;8.60;;;7.70;;
7166;SDS011;3625;51.762;14.320;2022-10-16T05:49:15;8.50;;;7.70;;
7166;SDS011;3625;51.762;14.320;2022-10-16T05:51:44;9.00;;;8.20;;
7166;SDS011;3625;51.762;14.320;2022-10-16T05:54:12;8.82;;;7.97;;
7166;SDS011;3625;51.762;14.320;2022-10-16T05:56:43;9.65;;;8.82;;
7166;SDS011;3625;51.762;14.320;2022-10-16T05:59:11;9.30;;;8.43;;
7166;SDS011;3625;51.762;14.320;2022-10-16T06:01:39;8.60;;;7.80;;
7166;SDS011;3625;51.762;14.320;2022-10-16T06:04:08;8.88;;;8.07;;
7166;SDS011;3625;51.762;14.320;2022-10-16T06:06:41;9.27;;;8.48;;
7166;SDS011;3625;51.762;14.320;2022-10-16T06:09:10;8.93;;;8.02;;
7166;SDS011;3625;51.762;14.320;2022-10-16T06:11:39;9.00;;;8.10;;
7166;SDS011;3625;51.762;14.320;2022-10-16T06:14:08;9.45;;;8.63;;
7166;SDS011;3625;51.762;14.320;2022-10-16T06:16:37;9.45;;;8.00;;
7166;SDS011;3625;51.762;14.320;2022-10-16T06:19:06;12.07;;;8.57;;
7166;SDS011;3625;51.762;14.320;2022-10-16T06:21:35;10.63;;;9.60;;
7166;SDS011;3625;51.762;14.320;2022-10-16T06:24:04;11.48;;;9.25;;
7166;SDS011;3625;51.762;14.320;2022-10-16T06:26:33;9.95;;;9.00;;
7166;SDS011;3625;51.762;14.320;2022-10-16T06:29:01;8.63;;;7.82;;
7166;SDS011;3625;51.762;14.320;2022-10-16T06:31:31;9.25;;;8.35;;
7166;SDS011;3625;51.762;14.320;2022-10-16T06:34:00;10.07;;;9.05;;
7166;SDS011;3625;51.762;14.320;2022-10-16T06:36:31;8.93;;;8.13;;
7166;SDS011;3625;51.762;14.320;2022-10-16T06:38:59;9.38;;;8.45;;
7166;SDS011;3625;51.762;14.320;2022-10-16T06:41:27;9.40;;;7.93;;
7166;SDS011;3625;51.762;14.320;2022-10-16T06:44:04;9.30;;;8.35;;
7166;SDS011;3625;51.762;14.320;2022-10-16T06:46:35;9.68;;;8.77;;
7166;SDS011;3625;51.762;14.320;2022-10-16T06:49:04;9.23;;;8.32;;
7166;SDS011;3625;51.762;14.320;2022-10-16T06:51:32;11.43;;;9.32;;
7166;SDS011;3625;51.762;14.320;2022-10-16T06:54:08;10.18;;;9.15;;
7166;SDS011;3625;51.762;14.320;2022-10-16T06:56:37;10.82;;;9.82;;
7166;SDS011;3625;51.762;14.320;2022-10-16T06:59:06;8.93;;;8.13;;
7166;SDS011;3625;51.762;14.320;2022-10-16T07:01:35;10.73;;;9.73;;
7166;SDS011;3625;51.762;14.320;2022-10-16T07:04:04;10.15;;;9.10;;
7166;SDS011;3625;51.762;14.320;2022-10-16T07:06:33;8.93;;;8.13;;
7166;SDS011;3625;51.762;14.320;2022-10-16T07:09:03;9.63;;;8.57;;
7166;SDS011;3625;51.762;14.320;2022-10-16T07:11:35;8.27;;;7.47;;
7166;SDS011;3625;51.762;14.320;2022-10-16T07:14:08;8.50;;;7.70;;
7166;SDS011;3625;51.762;14.320;2022-10-16T07:16:45;8.68;;;7.88;;
7166;SDS011;3625;51.762;14.320;2022-10-16T07:19:15;9.07;;;8.27;;
7166;SDS011;3625;51.762;14.320;2022-10-16T07:21:44;8.85;;;8.02;;
7166;SDS011;3625;51.762;14.320;2022-10-16T07:24:13;7.75;;;7.05;;
7166;SDS011;3625;51.762;14.320;2022-10-16T07:26:44;8.07;;;7.38;;
7166;SDS011;3625;51.762;14.320;2022-10-16T07:29:13;8.27;;;7.43;;
7166;SDS011;3625;51.762;14.320;2022-10-16T07:31:45;8.43;;;6.90;;
7166;SDS011;3625;51.762;14.320;2022-10-16T07:34:15;7.93;;;6.57;;
7166;SDS011;3625;51.762;14.320;2022-10-16T07:36:48;7.38;;;6.68;;
7166;SDS011;3625;51.762;14.320;2022-10-16T07:39:16;6.53;;;5.93;;
7166;SDS011;3625;51.762;14.320;2022-10-16T07:41:45;7.45;;;6.03;;
7166;SDS011;3625;51.762;14.320;2022-10-16T07:44:15;6.25;;;5.70;;
7166;SDS011;3625;51.762;14.320;2022-10-16T07:46:46;6.82;;;6.22;;
7166;SDS011;3625;51.762;14.320;2022-10-16T07:49:14;6.18;;;5.57;;
7166;SDS011;3625;51.762;14.320;2022-10-16T07:51:45;5.68;;;5.22;;
7166;SDS011;3625;51.762;14.320;2022-10-16T07:54:17;6.40;;;5.57;;
7166;SDS011;3625;51.762;14.320;2022-10-16T07:56:45;5.68;;;5.05;;
7166;SDS011;3625;51.762;14.320;2022-10-16T07:59:14;5.60;;;5.10;;
7166;SDS011;3625;51.762;14.320;2022-10-16T08:01:43;5.40;;;4.90;;
7166;SDS011;3625;51.762;14.320;2022-10-16T08:04:18;5.47;;;4.97;;
7166;SDS011;3625;51.762;14.320;2022-10-16T08:06:46;5.55;;;5.05;;
7166;SDS011;3625;51.762;14.320;2022-10-16T08:09:16;5.35;;;4.90;;
7166;SDS011;3625;51.762;14.320;2022-10-16T08:11:44;5.63;;;5.13;;
7166;SDS011;3625;51.762;14.320;2022-10-16T08:14:13;5.20;;;4.80;;
7166;SDS011;3625;51.762;14.320;2022-10-16T08:16:43;5.03;;;4.55;;
7166;SDS011;3625;51.762;14.320;2022-10-16T08:19:13;4.78;;;4.38;;
7166;SDS011;3625;51.762;14.320;2022-10-16T08:21:42;4.97;;;4.57;;
7166;SDS011;3625;51.762;14.320;2022-10-16T08:24:10;4.57;;;4.18;;
7166;SDS011;3625;51.762;14.320;2022-10-16T08:26:39;7.43;;;6.68;;
7166;SDS011;3625;51.762;14.320;2022-10-16T08:29:08;6.88;;;4.75;;
7166;SDS011;3625;51.762;14.320;2022-10-16T08:31:37;5.13;;;4.65;;
7166;SDS011;3625;51.762;14.320;2022-10-16T08:34:07;5.70;;;5.00;;
7166;SDS011;3625;51.762;14.320;2022-10-16T08:36:36;5.45;;;4.95;;
7166;SDS011;3625;51.762;14.320;2022-10-16T08:39:04;5.00;;;4.22;;
7166;SDS011;3625;51.762;14.320;2022-10-16T08:41:42;5.32;;;4.88;;
7166;SDS011;3625;51.762;14.320;2022-10-16T08:45:00;4.47;;;4.13;;
7166;SDS011;3625;51.762;14.320;2022-10-16T08:47:58;4.53;;;4.13;;
7166;SDS011;3625;51.762;14.320;2022-10-16T08:50:46;4.85;;;4.38;;
7166;SDS011;3625;51.762;14.320;2022-10-16T08:53:20;4.10;;;3.80;;
7166;SDS011;3625;51.762;14.320;2022-10-16T08:55:55;3.83;;;3.53;;
7166;SDS011;3625;51.762;14.320;2022-10-16T08:58:26;4.00;;;3.60;;
7166;SDS011;3625;51.762;14.320;2022-10-16T09:00:58;3.65;;;3.35;;
7166;SDS011;3625;51.762;14.320;2022-10-16T09:03:35;2.92;;;2.70;;
7166;SDS011;3625;51.762;14.320;2022-10-16T09:06:30;2.90;;;2.70;;
7166;SDS011;3625;51.762;14.320;2022-10-16T09:12:25;2.55;;;2.35;;
7166;SDS011;3625;51.762;14.320;2022-10-16T09:15:07;2.95;;;2.30;;
7166;SDS011;3625;51.762;14.320;2022-10-16T09:17:52;2.90;;;2.53;;
7166;SDS011;3625;51.762;14.320;2022-10-16T09:20:33;2.65;;;2.45;;
7166;SDS011;3625;51.762;14.320;2022-10-16T09:23:16;2.50;;;2.30;;
7166;SDS011;3625;51.762;14.320;2022-10-16T09:25:51;2.58;;;2.38;;
7166;SDS011;3625;51.762;14.320;2022-10-16T09:28:23;3.97;;;2.60;;
7166;SDS011;3625;51.762;14.320;2022-10-16T09:30:52;2.05;;;1.95;;
7166;SDS011;3625;51.762;14.320;2022-10-16T09:33:22;2.15;;;2.03;;
7166;SDS011;3625;51.762;14.320;2022-10-16T09:35:56;2.30;;;2.10;;
7166;SDS011;3625;51.762;14.320;2022-10-16T09:38:27;1.80;;;1.70;;
7166;SDS011;3625;51.762;14.320;2022-10-16T09:40:59;1.60;;;1.50;;
7166;SDS011;3625;51.762;14.320;2022-10-16T09:43:32;1.70;;;1.60;;
7166;SDS011;3625;51.762;14.320;2022-10-16T09:46:07;1.75;;;1.55;;
7166;SDS011;3625;51.762;14.320;2022-10-16T09:48:50;1.67;;;1.58;;
7166;SDS011;3625;51.762;14.320;2022-10-16T09:51:23;1.55;;;1.40;;
7166;SDS011;3625;51.762;14.320;2022-10-16T09:53:56;2.10;;;1.45;;
7166;SDS011;3625;51.762;14.320;2022-10-16T09:56:28;1.42;;;1.25;;
7166;SDS011;3625;51.762;14.320;2022-10-16T09:59:00;1.25;;;1.17;;
7166;SDS011;3625;51.762;14.320;2022-10-16T10:01:38;0.80;;;0.80;;
7166;SDS011;3625;51.762;14.320;2022-10-16T10:04:10;0.90;;;0.90;;
7166;SDS011;3625;51.762;14.320;2022-10-16T10:06:41;1.67;;;0.82;;
7166;SDS011;3625;51.762;14.320;2022-10-16T10:09:18;1.25;;;0.90;;
7166;SDS011;3625;51.762;14.320;2022-10-16T10:11:51;0.70;;;0.70;;
7166;SDS011;3625;51.762;14.320;2022-10-16T10:14:23;0.80;;;0.80;;
7166;SDS011;3625;51.762;14.320;2022-10-16T10:17:13;0.70;;;0.70;;
7166;SDS011;3625;51.762;14.320;2022-10-16T10:19:49;1.13;;;0.90;;
7166;SDS011;3625;51.762;14.320;2022-10-16T10:22:22;0.70;;;0.70;;
7166;SDS011;3625;51.762;14.320;2022-10-16T10:24:57;0.70;;;0.70;;
7166;SDS011;3625;51.762;14.320;2022-10-16T10:31:12;0.90;;;0.90;;
7166;SDS011;3625;51.762;14.320;2022-10-16T10:33:50;1.00;;;0.90;;
7166;SDS011;3625;51.762;14.320;2022-10-16T10:36:30;0.80;;;0.80;;
7166;SDS011;3625;51.762;14.320;2022-10-16T10:39:02;0.88;;;0.82;;
7166;SDS011;3625;51.762;14.320;2022-10-16T10:42:00;1.08;;;0.80;;
7166;SDS011;3625;51.762;14.320;2022-10-16T10:44:52;0.93;;;0.70;;
7166;SDS011;3625;51.762;14.320;2022-10-16T10:47:47;0.70;;;0.70;;
7166;SDS011;3625;51.762;14.320;2022-10-16T10:50:36;0.65;;;0.65;;
7166;SDS011;3625;51.762;14.320;2022-10-16T10:53:18;2.95;;;0.63;;
7166;SDS011;3625;51.762;14.320;2022-10-16T10:56:00;0.68;;;0.68;;
7166;SDS011;3625;51.762;14.320;2022-10-16T10:58:54;0.90;;;0.60;;
7166;SDS011;3625;51.762;14.320;2022-10-16T11:01:49;0.50;;;0.50;;
7166;SDS011;3625;51.762;14.320;2022-10-16T11:04:34;0.70;;;0.70;;
7166;SDS011;3625;51.762;14.320;2022-10-16T11:07:51;0.70;;;0.70;;
7166;SDS011;3625;51.762;14.320;2022-10-16T11:10:27;0.93;;;0.80;;
7166;SDS011;3625;51.762;14.320;2022-10-16T11:13:06;3.67;;;0.80;;
7166;SDS011;3625;51.762;14.320;2022-10-16T11:15:49;0.80;;;0.60;;
7166;SDS011;3625;51.762;14.320;2022-10-16T11:18:24;0.60;;;0.60;;
7166;SDS011;3625;51.762;14.320;2022-10-16T11:21:08;0.60;;;0.60;;
7166;SDS011;3625;51.762;14.320;2022-10-16T11:23:43;0.70;;;0.60;;
7166;SDS011;3625;51.762;14.320;2022-10-16T11:26:19;0.60;;;0.60;;
7166;SDS011;3625;51.762;14.320;2022-10-16T11:28:54;1.35;;;0.52;;
7166;SDS011;3625;51.762;14.320;2022-10-16T11:31:28;0.63;;;0.60;;
7166;SDS011;3625;51.762;14.320;2022-10-16T11:34:05;0.82;;;0.73;;
7166;SDS011;3625;51.762;14.320;2022-10-16T11:36:46;2.08;;;0.73;;
7166;SDS011;3625;51.762;14.320;2022-10-16T11:39:21;1.35;;;0.70;;
7166;SDS011;3625;51.762;14.320;2022-10-16T11:41:55;1.77;;;0.65;;
7166;SDS011;3625;51.762;14.320;2022-10-16T11:44:43;0.50;;;0.50;;
7166;SDS011;3625;51.762;14.320;2022-10-16T11:47:27;0.60;;;0.60;;
7166;SDS011;3625;51.762;14.320;2022-10-16T11:50:23;0.60;;;0.60;;
7166;SDS011;3625;51.762;14.320;2022-10-16T11:53:01;0.50;;;0.50;;
7166;SDS011;3625;51.762;14.320;2022-10-16T11:55:44;0.90;;;0.55;;
7166;SDS011;3625;51.762;14.320;2022-10-16T11:58:16;0.50;;;0.50;;
7166;SDS011;3625;51.762;14.320;2022-10-16T12:00:56;0.50;;;0.50;;
7166;SDS011;3625;51.762;14.320;2022-10-16T12:03:40;1.67;;;0.65;;
7166;SDS011;3625;51.762;14.320;2022-10-16T12:06:22;0.60;;;0.60;;
7166;SDS011;3625;51.762;14.320;2022-10-16T12:09:00;0.93;;;0.55;;
7166;SDS011;3625;51.762;14.320;2022-10-16T12:11:32;1.13;;;0.70;;
7166;SDS011;3625;51.762;14.320;2022-10-16T12:14:07;0.50;;;0.50;;
7166;SDS011;3625;51.762;14.320;2022-10-16T12:17:24;0.50;;;0.50;;
7166;SDS011;3625;51.762;14.320;2022-10-16T12:20:14;0.70;;;0.70;;
7166;SDS011;3625;51.762;14.320;2022-10-16T12:22:52;0.60;;;0.50;;
7166;SDS011;3625;51.762;14.320;2022-10-16T12:25:25;0.73;;;0.60;;
7166;SDS011;3625;51.762;14.320;2022-10-16T12:28:00;0.70;;;0.70;;
7166;SDS011;3625;51.762;14.320;2022-10-16T12:30:33;1.20;;;0.70;;
7166;SDS011;3625;51.762;14.320;2022-10-16T12:33:04;0.70;;;0.70;;
7166;SDS011;3625;51.762;14.320;2022-10-16T12:35:50;0.70;;;0.70;;
7166;SDS011;3625;51.762;14.320;2022-10-16T12:38:20;0.70;;;0.70;;
7166;SDS011;3625;51.762;14.320;2022-10-16T12:40:58;0.60;;;0.60;;
7166;SDS011;3625;51.762;14.320;2022-10-16T12:43:36;0.45;;;0.45;;
7166;SDS011;3625;51.762;14.320;2022-10-16T12:46:20;0.60;;;0.60;;
7166;SDS011;3625;51.762;14.320;2022-10-16T12:49:04;1.58;;;0.70;;
7166;SDS011;3625;51.762;14.320;2022-10-16T12:51:49;0.73;;;0.60;;
7166;SDS011;3625;51.762;14.320;2022-10-16T12:54:18;1.77;;;0.75;;
7166;SDS011;3625;51.762;14.320;2022-10-16T12:56:57;0.70;;;0.70;;
7166;SDS011;3625;51.762;14.320;2022-10-16T12:59:57;0.77;;;0.77;;
7166;SDS011;3625;51.762;14.320;2022-10-16T13:06:03;2.03;;;0.90;;
7166;SDS011;3625;51.762;14.320;2022-10-16T13:08:56;0.82;;;0.75;;
7166;SDS011;3625;51.762;14.320;2022-10-16T13:11:54;0.68;;;0.68;;
7166;SDS011;3625;51.762;14.320;2022-10-16T13:14:59;0.60;;;0.60;;
7166;SDS011;3625;51.762;14.320;2022-10-16T13:17:58;1.38;;;0.90;;
7166;SDS011;3625;51.762;14.320;2022-10-16T13:20:42;1.58;;;0.88;;
7166;SDS011;3625;51.762;14.320;2022-10-16T13:23:36;0.80;;;0.80;;
7166;SDS011;3625;51.762;14.320;2022-10-16T13:26:19;1.00;;;0.90;;
7166;SDS011;3625;51.762;14.320;2022-10-16T13:29:03;1.05;;;0.75;;
7166;SDS011;3625;51.762;14.320;2022-10-16T13:31:32;0.80;;;0.80;;
7166;SDS011;3625;51.762;14.320;2022-10-16T13:34:01;0.75;;;0.75;;
7166;SDS011;3625;51.762;14.320;2022-10-16T13:36:33;2.25;;;1.17;;
7166;SDS011;3625;51.762;14.320;2022-10-16T13:39:11;1.20;;;1.08;;
7166;SDS011;3625;51.762;14.320;2022-10-16T13:41:44;0.80;;;0.80;;
7166;SDS011;3625;51.762;14.320;2022-10-16T13:44:14;0.73;;;0.73;;
7166;SDS011;3625;51.762;14.320;2022-10-16T13:46:57;0.95;;;0.95;;
7166;SDS011;3625;51.762;14.320;2022-10-16T13:49:27;1.80;;;0.80;;
7166;SDS011;3625;51.762;14.320;2022-10-16T13:51:56;1.40;;;0.93;;
7166;SDS011;3625;51.762;14.320;2022-10-16T13:54:27;0.80;;;0.80;;
7166;SDS011;3625;51.762;14.320;2022-10-16T13:57:04;0.80;;;0.80;;
7166;SDS011;3625;51.762;14.320;2022-10-16T13:59:52;1.00;;;0.85;;
7166;SDS011;3625;51.762;14.320;2022-10-16T14:02:22;1.67;;;1.17;;
7166;SDS011;3625;51.762;14.320;2022-10-16T14:04:58;0.90;;;0.90;;
7166;SDS011;3625;51.762;14.320;2022-10-16T14:07:28;1.58;;;0.85;;
7166;SDS011;3625;51.762;14.320;2022-10-16T14:10:00;0.90;;;0.90;;
7166;SDS011;3625;51.762;14.320;2022-10-16T14:12:34;2.05;;;1.00;;
7166;SDS011;3625;51.762;14.320;2022-10-16T14:15:03;0.85;;;0.85;;
7166;SDS011;3625;51.762;14.320;2022-10-16T14:17:34;0.80;;;0.80;;
7166;SDS011;3625;51.762;14.320;2022-10-16T14:20:04;1.00;;;0.90;;
7166;SDS011;3625;51.762;14.320;2022-10-16T14:22:41;0.90;;;0.85;;
7166;SDS011;3625;51.762;14.320;2022-10-16T14:25:19;0.95;;;0.95;;
7166;SDS011;3625;51.762;14.320;2022-10-16T14:27:59;1.42;;;0.88;;
7166;SDS011;3625;51.762;14.320;2022-10-16T14:30:32;2.45;;;1.02;;
7166;SDS011;3625;51.762;14.320;2022-10-16T14:33:03;1.10;;;1.00;;
7166;SDS011;3625;51.762;14.320;2022-10-16T14:35:34;0.88;;;0.88;;
7166;SDS011;3625;51.762;14.320;2022-10-16T14:38:04;0.98;;;0.90;;
7166;SDS011;3625;51.762;14.320;2022-10-16T14:40:46;0.93;;;0.90;;
7166;SDS011;3625;51.762;14.320;2022-10-16T14:43:20;1.00;;;0.90;;
7166;SDS011;3625;51.762;14.320;2022-10-16T14:45:54;1.27;;;1.17;;
7166;SDS011;3625;51.762;14.320;2022-10-16T14:48:24;1.05;;;1.00;;
7166;SDS011;3625;51.762;14.320;2022-10-16T14:50:53;1.30;;;1.05;;
7166;SDS011;3625;51.762;14.320;2022-10-16T14:53:22;2.05;;;0.80;;
7166;SDS011;3625;51.762;14.320;2022-10-16T14:55:51;1.10;;;1.00;;
7166;SDS011;3625;51.762;14.320;2022-10-16T14:58:22;1.10;;;1.00;;
7166;SDS011;3625;51.762;14.320;2022-10-16T15:00:52;1.55;;;1.08;;
7166;SDS011;3625;51.762;14.320;2022-10-16T15:03:23;1.10;;;1.10;;
7166;SDS011;3625;51.762;14.320;2022-10-16T15:05:51;1.15;;;1.00;;
7166;SDS011;3625;51.762;14.320;2022-10-16T15:08:20;2.17;;;1.05;;
7166;SDS011;3625;51.762;14.320;2022-10-16T15:10:49;2.35;;;1.10;;
7166;SDS011;3625;51.762;14.320;2022-10-16T15:13:18;1.30;;;1.20;;
7166;SDS011;3625;51.762;14.320;2022-10-16T15:15:48;1.30;;;1.20;;
7166;SDS011;3625;51.762;14.320;2022-10-16T15:18:17;1.10;;;1.00;;
7166;SDS011;3625;51.762;14.320;2022-10-16T15:20:47;0.90;;;0.90;;
7166;SDS011;3625;51.762;14.320;2022-10-16T15:23:18;1.15;;;1.15;;
7166;SDS011;3625;51.762;14.320;2022-10-16T15:25:49;1.30;;;1.20;;
7166;SDS011;3625;51.762;14.320;2022-10-16T15:28:20;1.60;;;1.10;;
7166;SDS011;3625;51.762;14.320;2022-10-16T15:30:52;1.50;;;1.40;;
7166;SDS011;3625;51.762;14.320;2022-10-16T15:33:25;2.78;;;2.50;;
7166;SDS011;3625;51.762;14.320;2022-10-16T15:36:05;5.53;;;3.60;;
7166;SDS011;3625;51.762;14.320;2022-10-16T15:38:34;1.88;;;1.73;;
7166;SDS011;3625;51.762;14.320;2022-10-16T15:41:03;1.63;;;1.52;;
7166;SDS011;3625;51.762;14.320;2022-10-16T15:43:31;1.70;;;1.50;;
7166;SDS011;3625;51.762;14.320;2022-10-16T15:46:02;3.08;;;1.65;;
7166;SDS011;3625;51.762;14.320;2022-10-16T15:48:34;1.50;;;1.40;;
7166;SDS011;3625;51.762;14.320;2022-10-16T15:51:04;1.75;;;1.65;;